GSVT2: Red River, Gainesville, TX

Data processed at Fri Jul 29 23:31:54 2016 Central Daylight Time


All information presented herein is the property of the government of the United States of America and may be revised or deleted at any time without prior notice.
Dissemination of this information without the expressed written consent of the Public Affairs Office, Tulsa District U.S. Army Corps of Engineers is strictly prohibited.
These data are gathered electronically and, as presented, have not undergone any form of quality control. These data are not guaranteed to be valid or correct.
Go to home page.
Go to station list.
Go to station map.

Upstream stations:

Downstream station: Previous Day
Next Day
Current Day

Display graphics.
Display DCP transmissions.


    
    SHEF ID:       GSVT2     Red River, Gainesville, TX
    STATION TYPE:  STREAM GAGE
    Regulation Limits:  Stage =   25.00, Flow =   29517
    
                   PRECIP     STAGE  RIV-FLOW  BAT-LOAD
                   INCHES      FEET       CFS     VOLTS
                     GOES      GOES      GOES      GOES
       (Cen)
    07/29 01:00      0.00      6.69      1021     12.65
    07/29 02:00      0.00      6.68      1014     12.65
    07/29 03:00      0.00      6.67      1008     12.65
    07/29 04:00      0.00      6.67      1008     12.65
    07/29 05:00      0.00      6.67      1008     12.65
    07/29 06:00      0.00      6.67      1008     12.65
    07/29 07:00      0.00      6.66      1002     12.65
    07/29 08:00      0.00      6.65       995     12.65
    07/29 09:00      0.00      6.64       989     13.21
    07/29 10:00      0.00      6.63       982     13.37
    07/29 11:00      0.00      6.62       978     13.29
    07/29 12:00      0.00      6.63       982     13.53
    07/29 13:00      0.00      6.63       982     13.29
    07/29 14:00      0.00      6.59       967     14.00
    07/29 15:00      0.00      6.54       948     13.92
    07/29 16:00      0.00      6.54       948     13.76
    07/29 17:00      0.00      6.58       963     13.21
    07/29 18:00      0.00      6.57       960     13.13
    07/29 19:00      0.00      6.56       956     13.21
    07/29 20:00      0.00      6.55       952     13.13
    07/29 21:00      0.00      6.55       952     12.97
    07/29 22:00      0.00      6.55       952     12.73
    07/29 23:00      0.00      6.55       952     12.65
    07/30 00:00      ----      ----      ----      ----